createdAt,value
2023-04-03T00:00:40.566Z,55.76
2023-04-03T00:02:42.108Z,55.79
2023-04-03T00:04:43.542Z,55.83
2023-04-03T00:06:44.884Z,55.66
2023-04-03T00:08:46.209Z,55.35
2023-04-03T00:10:47.538Z,55.58
2023-04-03T00:12:48.846Z,56.01
2023-04-03T00:14:50.222Z,55.57
2023-04-03T00:16:51.613Z,55.58
2023-04-03T00:18:53.043Z,56.01
2023-04-03T00:20:54.335Z,55.94
2023-04-03T00:22:55.767Z,55.97
2023-04-03T00:24:57.066Z,56.72
2023-04-03T00:26:58.389Z,56.31
2023-04-03T00:28:59.690Z,56.33
2023-04-03T00:31:01.306Z,56.49
2023-04-03T00:33:02.792Z,56.40
2023-04-03T00:35:04.186Z,56.21
2023-04-03T00:37:05.940Z,56.94
2023-04-03T00:39:07.575Z,56.93
2023-04-03T00:41:08.997Z,56.49
2023-04-03T00:43:10.292Z,56.56
2023-04-03T00:45:11.580Z,56.78
2023-04-03T00:47:12.929Z,56.50
2023-04-03T00:49:14.224Z,56.93
2023-04-03T00:51:15.780Z,56.72
2023-04-03T00:53:17.079Z,56.97
2023-04-03T00:55:18.480Z,56.89
2023-04-03T00:57:19.815Z,56.98
2023-04-03T00:59:23.203Z,56.94
2023-04-03T01:01:24.596Z,57.37
2023-04-03T01:03:26.320Z,57.08
2023-04-03T01:05:27.645Z,57.12
2023-04-03T01:07:28.951Z,57.56
2023-04-03T01:09:30.287Z,57.13
2023-04-03T01:11:31.700Z,57.36
2023-04-03T01:13:33.221Z,57.58
2023-04-03T01:15:36.116Z,57.20
2023-04-03T01:17:37.589Z,57.74
2023-04-03T01:19:39.380Z,57.78
2023-04-03T01:21:41.270Z,57.44
2023-04-03T01:23:42.604Z,57.14
2023-04-03T01:25:44.100Z,57.19
2023-04-03T01:27:45.431Z,57.32
2023-04-03T01:29:46.856Z,57.50
2023-04-03T01:31:48.219Z,57.41
2023-04-03T01:33:49.591Z,57.78
2023-04-03T01:35:50.998Z,57.75
2023-04-03T01:37:52.358Z,57.33
2023-04-03T01:39:53.660Z,58.04
2023-04-03T01:41:54.981Z,57.42
2023-04-03T01:43:56.403Z,57.46
2023-04-03T01:45:57.793Z,57.33
2023-04-03T01:47:59.242Z,57.76
2023-04-03T01:50:00.601Z,57.79
2023-04-03T01:52:02.201Z,58.01
2023-04-03T01:54:03.529Z,57.59
2023-04-03T01:56:04.845Z,57.74
2023-04-03T01:58:06.205Z,57.57
2023-04-03T02:00:08.716Z,57.45
2023-04-03T02:02:10.062Z,57.37
2023-04-03T02:04:11.509Z,58.11
2023-04-03T02:06:13.051Z,58.04
2023-04-03T02:08:14.775Z,58.18
2023-04-03T02:10:16.142Z,57.69
2023-04-03T02:12:17.593Z,57.83
2023-04-03T02:14:18.926Z,57.79
2023-04-03T02:16:20.252Z,57.91
2023-04-03T02:18:21.599Z,57.83
2023-04-03T02:20:22.941Z,58.21
2023-04-03T02:22:24.270Z,58.48
2023-04-03T02:24:25.607Z,58.27
2023-04-03T02:26:27.618Z,58.30
2023-04-03T02:28:29.191Z,58.22
2023-04-03T02:30:30.636Z,58.33
2023-04-03T02:32:32.002Z,58.36
2023-04-03T02:34:33.308Z,58.34
2023-04-03T02:36:34.710Z,58.19
2023-04-03T02:38:36.276Z,58.46
2023-04-03T02:40:37.884Z,58.58
2023-04-03T02:42:39.362Z,58.62
2023-04-03T02:44:40.738Z,58.48
2023-04-03T02:46:42.203Z,58.64
2023-04-03T02:48:43.519Z,57.94
2023-04-03T02:50:44.839Z,57.32
2023-04-03T02:52:46.224Z,57.22
2023-04-03T02:54:47.516Z,56.93
2023-04-03T02:56:48.846Z,56.86
2023-04-03T02:58:50.503Z,56.69
2023-04-03T03:00:51.808Z,57.08
2023-04-03T03:02:53.139Z,57.06
2023-04-03T03:04:54.571Z,56.87
2023-04-03T03:06:55.977Z,56.79
2023-04-03T03:08:57.404Z,56.51
2023-04-03T03:10:58.704Z,56.93
2023-04-03T03:13:00.020Z,56.33
2023-04-03T03:15:02.212Z,56.29
2023-04-03T03:17:03.516Z,56.32
2023-04-03T03:19:04.815Z,56.36
2023-04-03T03:21:06.212Z,56.50
2023-04-03T03:23:07.519Z,56.07
2023-04-03T03:25:08.856Z,56.29
2023-04-03T03:27:10.462Z,55.49
2023-04-03T03:29:11.816Z,55.49
2023-04-03T03:31:13.344Z,56.03
2023-04-03T03:33:14.768Z,55.57
2023-04-03T03:35:16.346Z,55.85
2023-04-03T03:37:17.746Z,55.94
2023-04-03T03:39:19.066Z,55.83
2023-04-03T03:41:20.410Z,55.83
2023-04-03T03:43:21.923Z,56.28
2023-04-03T03:45:23.288Z,55.98
2023-04-03T03:47:24.638Z,56.03
2023-04-03T03:49:25.990Z,56.39
2023-04-03T03:51:27.311Z,56.32
2023-04-03T03:53:28.612Z,56.25
2023-04-03T03:55:29.944Z,56.52
2023-04-03T03:57:31.541Z,56.39
2023-04-03T03:59:33.029Z,56.67
2023-04-03T04:01:34.376Z,56.73
2023-04-03T04:03:35.901Z,56.88
2023-04-03T04:05:38.016Z,56.81
2023-04-03T04:07:39.642Z,57.04
2023-04-03T04:09:41.039Z,57.05
2023-04-03T04:11:42.427Z,57.13
2023-04-03T04:13:43.871Z,57.20
2023-04-03T04:15:45.311Z,56.80
2023-04-03T04:17:46.627Z,57.19
2023-04-03T04:19:48.148Z,57.24
2023-04-03T04:21:49.514Z,57.37
2023-04-03T04:23:50.975Z,56.89
2023-04-03T04:25:52.287Z,56.61
2023-04-03T04:27:53.616Z,56.28
2023-04-03T04:29:54.949Z,55.99
2023-04-03T04:31:56.391Z,55.33
2023-04-03T04:33:57.733Z,55.20
2023-04-03T04:35:59.073Z,54.56
2023-04-03T04:38:00.924Z,54.43
2023-04-03T04:40:02.913Z,54.49
2023-04-03T04:42:04.324Z,54.13
2023-04-03T04:44:05.631Z,53.98
2023-04-03T04:46:07.121Z,54.13
2023-04-03T04:48:08.510Z,53.96
2023-04-03T04:50:09.898Z,53.92
2023-04-03T04:52:11.208Z,53.91
2023-04-03T04:54:12.591Z,53.81
2023-04-03T04:56:13.887Z,53.30
2023-04-03T04:58:15.386Z,53.57
2023-04-03T05:00:16.811Z,53.66
2023-04-03T05:02:18.167Z,53.52
2023-04-03T05:04:19.558Z,53.59
2023-04-03T05:06:20.957Z,53.78
2023-04-03T05:08:22.290Z,53.86
2023-04-03T05:10:23.606Z,54.12
2023-04-03T05:12:24.907Z,54.08
2023-04-03T05:14:26.279Z,53.94
2023-04-03T05:16:27.617Z,54.35
2023-04-03T05:18:28.940Z,54.02
2023-04-03T05:20:30.329Z,54.30
2023-04-03T05:22:31.653Z,54.50
2023-04-03T05:24:32.956Z,54.88
2023-04-03T05:26:34.297Z,55.00
2023-04-03T05:28:35.699Z,54.91
2023-04-03T05:30:37.040Z,55.48
2023-04-03T05:32:38.467Z,55.38
2023-04-03T05:34:39.919Z,55.49
2023-04-03T05:36:41.245Z,55.63
2023-04-03T05:38:42.805Z,55.67
2023-04-03T05:40:44.208Z,55.52
2023-04-03T05:42:45.568Z,55.67
2023-04-03T05:44:48.210Z,55.67
2023-04-03T05:46:49.549Z,55.89
2023-04-03T05:48:51.052Z,56.02
2023-04-03T05:50:52.913Z,55.80
2023-04-03T05:52:54.692Z,56.04
2023-04-03T05:54:56.153Z,55.93
2023-04-03T05:56:57.497Z,55.92
2023-04-03T05:58:58.827Z,55.65
2023-04-03T06:01:00.358Z,55.71
2023-04-03T06:03:02.276Z,55.43
2023-04-03T06:05:03.920Z,55.48
2023-04-03T06:07:05.271Z,54.97
2023-04-03T06:09:06.593Z,54.59
2023-04-03T06:11:09.698Z,54.04
2023-04-03T06:13:10.995Z,53.71
2023-04-03T06:15:12.768Z,53.52
2023-04-03T06:17:14.489Z,53.14
2023-04-03T06:19:16.652Z,53.32
2023-04-03T06:21:17.967Z,53.07
2023-04-03T06:23:19.286Z,52.99
2023-04-03T06:25:20.640Z,52.85
2023-04-03T06:27:21.955Z,52.66
2023-04-03T06:29:23.454Z,52.85
2023-04-03T06:31:25.124Z,52.89
2023-04-03T06:33:27.150Z,52.63
2023-04-03T06:35:29.567Z,52.74
2023-04-03T06:37:31.567Z,53.13
2023-04-03T06:39:33.555Z,53.11
2023-04-03T06:41:36.003Z,53.62
2023-04-03T06:43:38.383Z,53.57
2023-04-03T06:45:39.927Z,53.39
2023-04-03T06:47:41.504Z,54.08
2023-04-03T06:49:42.844Z,53.56
2023-04-03T06:51:44.195Z,53.93
2023-04-03T06:53:45.798Z,53.87
2023-04-03T06:55:48.254Z,54.11
2023-04-03T06:57:49.583Z,54.31
2023-04-03T06:59:51.192Z,54.71
2023-04-03T07:01:52.793Z,54.68
2023-04-03T07:03:54.194Z,54.81
2023-04-03T07:05:56.384Z,54.93
2023-04-03T07:07:57.809Z,55.02
2023-04-03T07:09:59.122Z,54.97
2023-04-03T07:12:00.483Z,55.18
2023-04-03T07:14:01.861Z,55.20
2023-04-03T07:16:04.609Z,55.16
2023-04-03T07:18:07.080Z,55.22
2023-04-03T07:20:08.586Z,55.36
2023-04-03T07:22:10.420Z,55.19
2023-04-03T07:24:15.107Z,54.85
2023-04-03T07:26:17.959Z,54.81
2023-04-03T07:28:22.257Z,55.00
2023-04-03T07:30:24.090Z,54.96
2023-04-03T07:32:25.971Z,54.56
2023-04-03T07:34:27.267Z,54.13
2023-04-03T07:36:28.955Z,53.76
2023-04-03T07:38:30.295Z,53.72
2023-04-03T07:40:31.931Z,53.18
2023-04-03T07:42:33.320Z,53.20
2023-04-03T07:44:34.832Z,53.11
2023-04-03T07:46:36.160Z,52.71
2023-04-03T07:48:37.505Z,52.37
2023-04-03T07:50:38.890Z,52.55
2023-04-03T07:52:40.462Z,52.09
2023-04-03T07:54:41.811Z,52.03
2023-04-03T07:56:43.893Z,52.22
2023-04-03T07:58:45.259Z,52.21
2023-04-03T08:00:46.614Z,52.42
2023-04-03T08:02:52.709Z,52.59
2023-04-03T08:04:54.471Z,52.49
2023-04-03T08:06:56.143Z,52.53
2023-04-03T08:08:57.429Z,52.69
2023-04-03T08:10:58.867Z,52.83
2023-04-03T08:13:00.404Z,52.91
2023-04-03T08:15:02.303Z,53.28
2023-04-03T08:17:05.550Z,53.27
2023-04-03T08:19:15.141Z,53.67
2023-04-03T08:21:20.408Z,53.86
2023-04-03T08:23:22.006Z,54.04
2023-04-03T08:25:23.386Z,54.14
2023-04-03T08:27:24.731Z,54.18
2023-04-03T08:29:27.291Z,54.26
2023-04-03T08:31:28.729Z,54.34
2023-04-03T08:33:30.084Z,54.46
2023-04-03T08:35:31.480Z,54.29
2023-04-03T08:37:32.913Z,54.47
2023-04-03T08:39:34.201Z,54.64
2023-04-03T08:41:36.298Z,54.63
2023-04-03T08:43:37.592Z,54.58
2023-04-03T08:45:39.231Z,54.57
2023-04-03T08:47:41.066Z,54.60
2023-04-03T08:49:48.118Z,54.67
2023-04-03T08:51:49.705Z,54.59
2023-04-03T08:53:51.042Z,54.12
2023-04-03T08:55:52.378Z,54.19
2023-04-03T08:57:54.132Z,54.03
2023-04-03T08:59:55.425Z,53.74
2023-04-03T09:01:56.800Z,53.76
2023-04-03T09:03:58.211Z,53.13
2023-04-03T09:05:59.559Z,52.97
2023-04-03T09:08:02.135Z,53.08
2023-04-03T09:10:04.186Z,52.33
2023-04-03T09:12:10.141Z,52.26
2023-04-03T09:14:11.439Z,52.32
2023-04-03T09:16:12.758Z,51.96
2023-04-03T09:18:14.643Z,52.09
2023-04-03T09:20:17.226Z,52.13
2023-04-03T09:22:20.260Z,52.02
2023-04-03T09:24:21.582Z,52.03
2023-04-03T09:26:22.883Z,52.11
2023-04-03T09:28:24.203Z,51.84
2023-04-03T09:30:25.868Z,52.19
2023-04-03T09:32:27.316Z,52.33
2023-04-03T09:34:28.611Z,52.30
2023-04-03T09:36:29.937Z,52.20
2023-04-03T09:38:32.316Z,52.47
2023-04-03T09:40:36.344Z,52.19
2023-04-03T09:42:37.904Z,52.75
2023-04-03T09:44:39.195Z,52.97
2023-04-03T09:46:40.790Z,52.83
2023-04-03T09:48:42.158Z,53.07
2023-04-03T09:50:43.664Z,53.53
2023-04-03T09:52:44.992Z,53.26
2023-04-03T09:54:46.396Z,53.38
2023-04-03T09:56:47.731Z,53.68
2023-04-03T09:58:51.106Z,53.82
2023-04-03T10:00:52.826Z,54.17
2023-04-03T10:02:54.172Z,53.79
2023-04-03T10:05:08.384Z,53.98
2023-04-03T10:07:11.048Z,54.08
2023-04-03T10:09:12.354Z,54.29
2023-04-03T10:11:14.915Z,54.32
2023-04-03T10:13:21.074Z,54.37
2023-04-03T10:15:23.062Z,54.25
2023-04-03T10:17:24.921Z,54.33
2023-04-03T10:19:26.293Z,53.96
2023-04-03T10:21:28.422Z,53.80
2023-04-03T10:23:29.765Z,53.77
2023-04-03T10:25:31.456Z,53.52
2023-04-03T10:27:32.811Z,52.85
2023-04-03T10:29:34.133Z,53.00
2023-04-03T10:31:35.488Z,52.66
2023-04-03T10:33:40.229Z,52.22
2023-04-03T10:35:41.631Z,52.26
2023-04-03T10:37:42.958Z,52.29
2023-04-03T10:39:44.314Z,51.66
2023-04-03T10:41:45.859Z,51.92
2023-04-03T10:43:47.763Z,51.74
2023-04-03T10:45:49.108Z,51.35
2023-04-03T10:47:50.699Z,51.70
2023-04-03T10:49:59.332Z,51.36
2023-04-03T10:52:02.210Z,51.38
2023-04-03T10:54:03.505Z,51.36
2023-04-03T10:56:04.802Z,51.58
2023-04-03T10:58:06.205Z,51.58
2023-04-03T11:00:10.334Z,51.81
2023-04-03T11:02:12.316Z,51.50
2023-04-03T11:04:13.774Z,51.61
2023-04-03T11:06:15.785Z,51.55
2023-04-03T11:08:17.158Z,51.97
2023-04-03T11:10:18.682Z,52.06
2023-04-03T11:12:19.985Z,52.33
2023-04-03T11:14:21.310Z,52.37
2023-04-03T11:16:22.658Z,52.51
2023-04-03T11:18:23.996Z,52.84
2023-04-03T11:20:28.633Z,52.84
2023-04-03T11:22:30.188Z,52.89
2023-04-03T11:24:32.017Z,53.42
2023-04-03T11:26:33.980Z,53.36
2023-04-03T11:28:35.315Z,53.69
2023-04-03T11:30:36.662Z,53.93
2023-04-03T11:32:38.070Z,53.58
2023-04-03T11:34:41.497Z,53.83
2023-04-03T11:36:42.893Z,54.08
2023-04-03T11:38:44.460Z,54.10
2023-04-03T11:40:45.949Z,54.06
2023-04-03T11:42:47.323Z,53.96
2023-04-03T11:44:48.638Z,53.89
2023-04-03T11:46:49.972Z,53.47
2023-04-03T11:48:51.434Z,53.63
2023-04-03T11:50:53.062Z,53.55
2023-04-03T11:52:54.427Z,53.04
2023-04-03T11:54:55.774Z,52.74
2023-04-03T11:56:57.097Z,52.49
2023-04-03T11:58:58.423Z,52.47
2023-04-03T12:00:59.769Z,52.15
2023-04-03T12:03:01.237Z,51.78
2023-04-03T12:05:02.663Z,51.97
2023-04-03T12:07:05.285Z,51.79
2023-04-03T12:09:07.520Z,51.93
2023-04-03T12:11:08.984Z,51.75
2023-04-03T12:13:10.314Z,51.62
2023-04-03T12:15:11.657Z,51.17
2023-04-03T12:17:12.984Z,51.16
2023-04-03T12:19:14.344Z,51.12
2023-04-03T12:21:19.388Z,51.51
2023-04-03T12:23:20.696Z,51.29
2023-04-03T12:25:21.996Z,51.56
2023-04-03T12:27:23.422Z,51.21
2023-04-03T12:29:24.824Z,51.52
2023-04-03T12:31:26.165Z,51.84
2023-04-03T12:33:27.537Z,51.65
2023-04-03T12:35:29.075Z,51.98
2023-04-03T12:37:30.486Z,52.07
2023-04-03T12:39:31.825Z,52.41
2023-04-03T12:41:33.151Z,52.37
2023-04-03T12:43:34.481Z,52.52
2023-04-03T12:45:36.268Z,39.89
2023-04-03T12:47:39.165Z,45.79
2023-04-03T12:49:40.788Z,44.93
2023-04-03T12:51:42.123Z,45.61
2023-04-03T12:53:43.880Z,46.07
2023-04-03T12:55:45.452Z,46.68
2023-04-03T12:57:46.830Z,47.06
2023-04-03T12:59:48.274Z,47.63
2023-04-03T13:01:49.608Z,47.74
2023-04-03T13:03:51.059Z,48.49
2023-04-03T13:05:52.455Z,48.98
2023-04-03T13:07:53.792Z,49.19
2023-04-03T13:09:55.084Z,49.07
2023-04-03T13:11:56.510Z,49.26
2023-04-03T13:13:57.855Z,49.20
2023-04-03T13:15:59.185Z,49.09
2023-04-03T13:18:00.621Z,49.02
2023-04-03T13:20:02.089Z,48.92
2023-04-03T13:22:03.961Z,48.62
2023-04-03T13:24:14.935Z,48.69
2023-04-03T13:26:17.245Z,48.55
2023-04-03T13:28:18.787Z,48.70
2023-04-03T13:30:20.116Z,47.88
2023-04-03T13:32:21.445Z,48.03
2023-04-03T13:34:23.703Z,48.06
2023-04-03T13:36:25.036Z,48.07
2023-04-03T13:38:26.383Z,48.54
2023-04-03T13:40:38.143Z,47.90
2023-04-03T13:42:47.148Z,47.55
2023-04-03T13:44:49.820Z,47.31
2023-04-03T13:46:51.350Z,46.93
2023-04-03T13:48:52.698Z,45.96
2023-04-03T13:50:54.001Z,46.94
2023-04-03T13:52:55.443Z,47.35
2023-04-03T13:54:56.791Z,47.54
2023-04-03T13:56:58.277Z,47.62
2023-04-03T13:58:59.917Z,48.21
2023-04-03T14:01:01.520Z,48.02
2023-04-03T14:03:02.910Z,47.67
2023-04-03T14:05:04.959Z,47.92
2023-04-03T14:07:06.295Z,48.33
2023-04-03T14:09:07.583Z,48.16
2023-04-03T14:11:08.884Z,47.92
2023-04-03T14:13:10.399Z,46.56
2023-04-03T14:15:11.742Z,47.08
2023-04-03T14:17:13.115Z,47.11
2023-04-03T14:19:26.767Z,46.87
2023-04-03T14:21:28.104Z,46.23
2023-04-03T14:23:29.393Z,46.08
2023-04-03T14:25:30.727Z,45.69
2023-04-03T14:27:32.666Z,44.72
2023-04-03T14:29:34.032Z,45.49
2023-04-03T14:31:35.488Z,45.57
2023-04-03T14:33:37.609Z,45.78
2023-04-03T14:35:38.944Z,45.85
2023-04-03T14:37:40.840Z,45.91
2023-04-03T14:39:42.436Z,46.11
2023-04-03T14:41:43.763Z,46.49
2023-04-03T14:43:45.106Z,46.92
2023-04-03T14:45:46.453Z,46.24
2023-04-03T14:47:48.543Z,47.27
2023-04-03T14:49:49.966Z,48.12
2023-04-03T14:51:51.587Z,48.29
2023-04-03T14:53:53.265Z,48.75
2023-04-03T14:55:54.869Z,48.41
2023-04-03T14:57:56.200Z,47.54
2023-04-03T14:59:57.613Z,47.71
2023-04-03T15:01:59.005Z,47.87
2023-04-03T15:04:00.498Z,46.87
2023-04-03T15:06:02.168Z,47.00
2023-04-03T15:08:03.478Z,47.23
2023-04-03T15:10:04.788Z,46.77
2023-04-03T15:12:06.129Z,46.85
2023-04-03T15:14:07.467Z,47.34
2023-04-03T15:16:08.794Z,47.26
2023-04-03T15:18:13.213Z,47.00
2023-04-03T15:20:14.530Z,46.79
2023-04-03T15:22:15.842Z,46.51
2023-04-03T15:24:17.161Z,46.33
2023-04-03T15:26:18.471Z,46.65
2023-04-03T15:28:19.934Z,47.21
2023-04-03T15:30:21.890Z,47.03
2023-04-03T15:32:23.259Z,47.28
2023-04-03T15:34:30.171Z,47.44
2023-04-03T15:36:35.016Z,47.75
2023-04-03T15:38:38.424Z,47.71
2023-04-03T15:40:39.860Z,47.81
2023-04-03T15:42:41.319Z,48.50
2023-04-03T15:44:42.639Z,48.90
2023-04-03T15:46:43.958Z,48.76
2023-04-03T15:48:45.906Z,49.26
2023-04-03T15:50:47.241Z,49.15
2023-04-03T15:52:49.261Z,49.29
2023-04-03T15:54:50.617Z,49.26
2023-04-03T15:56:51.995Z,49.70
2023-04-03T15:58:53.363Z,49.61
2023-04-03T16:00:54.693Z,49.92
2023-04-03T16:02:56.335Z,49.83
2023-04-03T16:04:57.865Z,50.16
2023-04-03T16:06:59.204Z,50.15
2023-04-03T16:09:02.241Z,50.33
2023-04-03T16:11:03.566Z,50.05
2023-04-03T16:13:04.864Z,50.34
2023-04-03T16:15:06.170Z,50.03
2023-04-03T16:17:07.516Z,50.34
2023-04-03T16:19:08.850Z,50.13
2023-04-03T16:21:10.333Z,50.19
2023-04-03T16:23:11.659Z,50.09
2023-04-03T16:25:15.841Z,49.39
2023-04-03T16:27:19.813Z,48.63
2023-04-03T16:29:21.149Z,49.52
2023-04-03T16:31:25.346Z,49.55
2023-04-03T16:33:26.685Z,48.59
2023-04-03T16:35:33.775Z,48.34
2023-04-03T16:37:37.912Z,48.59
2023-04-03T16:39:39.252Z,48.12
2023-04-03T16:41:46.739Z,48.20
2023-04-03T16:43:48.036Z,48.71
2023-04-03T16:45:49.488Z,48.63
2023-04-03T16:47:51.149Z,48.73
2023-04-03T16:49:52.515Z,49.18
2023-04-03T16:51:53.874Z,49.62
2023-04-03T16:53:55.273Z,50.17
2023-04-03T16:55:56.611Z,49.31
2023-04-03T16:57:57.913Z,48.79
2023-04-03T16:59:59.256Z,46.62
2023-04-03T17:02:00.566Z,46.88
2023-04-03T17:04:02.320Z,47.16
2023-04-03T17:06:03.707Z,47.91
2023-04-03T17:08:05.038Z,47.20
2023-04-03T17:10:06.476Z,46.44
2023-04-03T17:12:07.857Z,46.64
2023-04-03T17:14:09.448Z,47.73
2023-04-03T17:16:10.893Z,47.40
2023-04-03T17:18:12.214Z,46.84
2023-04-03T17:20:13.507Z,47.32
2023-04-03T17:22:16.507Z,47.83
2023-04-03T17:24:17.810Z,48.75
2023-04-03T17:26:19.100Z,47.46
2023-04-03T17:28:20.455Z,47.68
2023-04-03T17:30:21.861Z,48.12
2023-04-03T17:32:29.656Z,48.40
2023-04-03T17:34:30.966Z,48.31
2023-04-03T17:36:32.275Z,47.17
2023-04-03T17:38:34.042Z,47.99
2023-04-03T17:40:35.482Z,47.97
2023-04-03T17:42:39.651Z,48.93
2023-04-03T17:44:41.250Z,48.99
2023-04-03T17:46:45.445Z,48.52
2023-04-03T17:48:49.492Z,48.34
2023-04-03T17:50:50.968Z,48.83
2023-04-03T17:52:52.334Z,48.36
2023-04-03T17:54:59.732Z,48.22
2023-04-03T17:57:03.492Z,48.71
2023-04-03T17:59:04.893Z,49.44
2023-04-03T18:01:06.296Z,49.20
2023-04-03T18:03:07.656Z,49.23
2023-04-03T18:05:10.117Z,49.67
2023-04-03T18:07:12.019Z,48.87
2023-04-03T18:11:16.203Z,49.49
2023-04-03T18:13:17.517Z,49.60
2023-04-03T18:15:18.873Z,49.76
2023-04-03T18:17:20.305Z,49.09
2023-04-03T18:19:23.802Z,49.31
2023-04-03T18:21:25.399Z,49.02
2023-04-03T18:23:32.683Z,49.58
2023-04-03T18:25:34.072Z,49.64
2023-04-03T18:27:38.291Z,49.59
2023-04-03T18:29:39.663Z,49.77
2023-04-03T18:31:41.243Z,50.35
2023-04-03T18:33:42.667Z,49.75
2023-04-03T18:35:44.238Z,49.76
2023-04-03T18:37:45.949Z,50.01
2023-04-03T18:39:47.250Z,49.87
2023-04-03T18:41:48.606Z,50.02
2023-04-03T18:43:49.905Z,50.32
2023-04-03T18:45:51.325Z,48.50
2023-04-03T18:47:58.563Z,49.81
2023-04-03T18:49:59.914Z,50.42
2023-04-03T18:52:02.233Z,50.44
2023-04-03T18:54:04.244Z,49.30
2023-04-03T18:56:06.621Z,48.40
2023-04-03T18:58:08.562Z,49.27
2023-04-03T19:00:10.287Z,49.85
2023-04-03T19:02:12.796Z,50.57
2023-04-03T19:04:16.912Z,50.34
2023-04-03T19:06:18.240Z,50.46
2023-04-03T19:08:19.556Z,50.36
2023-04-03T19:10:20.942Z,50.40
2023-04-03T19:12:22.359Z,50.32
2023-04-03T19:14:23.660Z,50.13
2023-04-03T19:16:25.064Z,50.00
2023-04-03T19:18:26.486Z,50.19
2023-04-03T19:20:27.797Z,49.54
2023-04-03T19:22:30.449Z,49.11
2023-04-03T19:24:31.907Z,48.97
2023-04-03T19:26:33.201Z,48.67
2023-04-03T19:28:34.501Z,48.45
2023-04-03T19:30:35.799Z,48.86
2023-04-03T19:32:37.147Z,49.19
2023-04-03T19:34:38.457Z,50.06
2023-04-03T19:36:40.103Z,49.24
2023-04-03T19:38:44.393Z,49.01
2023-04-03T19:40:45.769Z,49.40
2023-04-03T19:42:50.179Z,47.97
2023-04-03T19:44:51.495Z,48.72
2023-04-03T19:46:52.879Z,48.99
2023-04-03T19:48:54.208Z,48.41
2023-04-03T19:50:55.539Z,48.92
2023-04-03T19:52:56.876Z,49.29
2023-04-03T19:54:58.233Z,49.18
2023-04-03T19:56:59.978Z,49.22
2023-04-03T19:59:01.330Z,49.40
2023-04-03T20:01:02.658Z,49.01
2023-04-03T20:03:04.016Z,49.68
2023-04-03T20:05:06.007Z,49.94
2023-04-03T20:07:07.400Z,50.45
2023-04-03T20:09:08.735Z,50.99
2023-04-03T20:11:10.520Z,50.94
2023-04-03T20:13:12.192Z,50.13
2023-04-03T20:15:13.557Z,50.59
2023-04-03T20:17:15.211Z,51.10
2023-04-03T20:19:16.862Z,49.71
2023-04-03T20:21:18.811Z,49.82
2023-04-03T20:23:20.251Z,49.69
2023-04-03T20:25:43.829Z,49.71
2023-04-03T20:27:43.487Z,50.09
2023-04-03T20:29:44.786Z,50.16
2023-04-03T20:31:47.327Z,50.73
2023-04-03T20:33:48.720Z,49.31
2023-04-03T20:35:54.378Z,49.14
2023-04-03T20:37:58.403Z,36.65
2023-04-03T20:40:00.373Z,35.33
2023-04-03T20:42:03.424Z,39.24
2023-04-03T20:44:04.724Z,41.67
2023-04-03T20:46:06.024Z,41.78
2023-04-03T20:48:07.408Z,42.66
2023-04-03T20:50:09.569Z,43.16
2023-04-03T20:52:11.301Z,43.62
2023-04-03T20:54:12.906Z,44.05
2023-04-03T20:56:14.280Z,44.37
2023-04-03T20:58:15.626Z,45.10
2023-04-03T21:00:20.046Z,45.19
2023-04-03T21:02:21.581Z,46.47
2023-04-03T21:04:23.200Z,46.62
2023-04-03T21:06:24.494Z,46.64
2023-04-03T21:08:25.789Z,46.74
2023-04-03T21:10:28.400Z,47.67
2023-04-03T21:12:29.771Z,47.42
2023-04-03T21:14:31.738Z,47.57
2023-04-03T21:16:33.659Z,47.70
2023-04-03T21:18:35.854Z,47.86
2023-04-03T21:20:37.346Z,48.09
2023-04-03T21:22:43.211Z,48.35
2023-04-03T21:24:48.393Z,48.13
2023-04-03T21:26:49.698Z,48.69
2023-04-03T21:28:51.299Z,48.83
2023-04-03T21:30:52.608Z,49.11
2023-04-03T21:32:54.072Z,48.74
2023-04-03T21:34:55.556Z,49.17
2023-04-03T21:36:57.410Z,49.10
2023-04-03T21:38:58.902Z,49.08
2023-04-03T21:41:00.894Z,49.22
2023-04-03T21:43:02.481Z,49.64
2023-04-03T21:45:04.014Z,49.74
2023-04-03T21:47:05.443Z,49.58
2023-04-03T21:49:07.641Z,49.71
2023-04-03T21:51:08.980Z,50.29
2023-04-03T21:53:10.315Z,50.57
2023-04-03T21:55:11.642Z,50.45
2023-04-03T21:57:13.431Z,50.21
2023-04-03T21:59:14.991Z,50.05
2023-04-03T22:01:16.622Z,51.54
2023-04-03T22:03:18.069Z,50.28
2023-04-03T22:05:19.489Z,50.46
2023-04-03T22:07:20.810Z,50.45
2023-04-03T22:09:22.178Z,50.83
2023-04-03T22:11:27.150Z,51.45
2023-04-03T22:13:28.544Z,51.07
2023-04-03T22:15:30.231Z,51.70
2023-04-03T22:17:31.639Z,51.93
2023-04-03T22:19:33.055Z,51.88
2023-04-03T22:21:34.359Z,52.06
2023-04-03T22:23:35.807Z,52.25
2023-04-03T22:25:37.172Z,51.89
2023-04-03T22:27:38.474Z,52.74
2023-04-03T22:29:39.851Z,53.46
2023-04-03T22:31:42.398Z,53.26
2023-04-03T22:33:43.787Z,53.11
2023-04-03T22:35:45.458Z,53.35
2023-04-03T22:37:47.112Z,53.32
2023-04-03T22:39:48.508Z,53.48
2023-04-03T22:41:50.406Z,53.34
2023-04-03T22:43:52.000Z,53.31
2023-04-03T22:45:53.338Z,53.35
2023-04-03T22:47:58.690Z,53.21
2023-04-03T22:50:00.110Z,52.70
2023-04-03T22:52:01.408Z,53.51
2023-04-03T22:54:02.710Z,53.44
2023-04-03T22:56:04.764Z,53.32
2023-04-03T22:58:06.632Z,52.89
2023-04-03T23:00:08.021Z,53.22
2023-04-03T23:02:09.378Z,53.74
2023-04-03T23:04:10.975Z,53.09
2023-04-03T23:06:13.451Z,53.01
2023-04-03T23:08:14.784Z,53.11
2023-04-03T23:10:16.322Z,53.02
2023-04-03T23:12:17.622Z,53.52
2023-04-03T23:14:18.935Z,53.27
2023-04-03T23:16:20.322Z,53.48
2023-04-03T23:18:21.783Z,53.43
2023-04-03T23:20:23.122Z,53.11
2023-04-03T23:22:24.459Z,53.93
2023-04-03T23:24:25.996Z,53.79
2023-04-03T23:26:27.366Z,53.56
2023-04-03T23:28:28.693Z,53.65
2023-04-03T23:30:29.997Z,54.36
2023-04-03T23:32:31.395Z,53.78
2023-04-03T23:34:32.804Z,54.49
2023-04-03T23:36:34.144Z,54.18
2023-04-03T23:38:35.483Z,54.46
2023-04-03T23:40:36.915Z,54.79
2023-04-03T23:42:38.274Z,54.97
2023-04-03T23:44:39.576Z,54.77
2023-04-03T23:46:40.877Z,54.87
2023-04-03T23:48:42.494Z,55.55
2023-04-03T23:50:43.788Z,55.39
2023-04-03T23:52:45.116Z,55.11
2023-04-03T23:54:46.802Z,54.95
2023-04-03T23:56:48.146Z,55.49
2023-04-03T23:58:49.535Z,55.43
